In Rescue
 
Open Full Screen Window  High Contrast Mode
Wind Gusting 23 knots
13
May 27, 2024 3:06 PM EDT
Weather Information
Wind Direction
  210 °
Wind Speed
  13 kt (15 mph)
Wind Gust
  23 kt (26 mph)
Variable Wind
170°
250°
Altimeter
29.68 in
Visibility
10 SM
Temperature
24° C
75° F
Dewpoint
14° C
57° F
Humidity
54%
Sky Condition
Clear
VFR

METAR K4I3 271906Z AUTO 21013G23KT 170V250 10SM CLR 24/14 A2968 RMK AO2

FAA Disclaimer: The data displayed is for advisory purposes only and is not to be used for flight planning or operations.